Albert Lea, Minnesota
Current Conditions -  °F | °C
As of 5:15 PM on Wednesday 22 Oct 2014 (Local Time) from KAEL Reporting Station
Clear Clear  
Wind Chill: 59°   Ceiling: Unl
Heat Index: 59°   Visibility: 10mi
Dew Point: 43°   Wind: 20mph
Humidity: 55%   Direction: 150°SSE
Pressure: 30.08"   Gusts: 24mph
Location:  43.65°N, 93.37°W
Report Text: KAEL 222215Z AUTO 15017G21KT 10SM CLR 15/06 A3008 RMK AO2 LTG DSNT NW
Loading
Personal Weather Stations






























Interactive Weather Map
Tropical Storm Tracking
New forecast layout! Learn more

10-Day Weather Forecast

Advertisements
Track Severe Weather on mobile